createdAt,value
2018-09-22T00:02:06.636Z,1.80
2018-09-22T00:04:35.212Z,2.43
2018-09-22T00:07:03.787Z,2.10
2018-09-22T00:09:32.353Z,1.77
2018-09-22T00:12:00.918Z,1.70
2018-09-22T00:14:29.505Z,1.87
2018-09-22T00:16:58.070Z,2.20
2018-09-22T00:19:26.720Z,1.70
2018-09-22T00:21:55.332Z,1.70
2018-09-22T00:24:23.872Z,1.93
2018-09-22T00:26:52.415Z,2.00
2018-09-22T00:29:20.992Z,2.17
2018-09-22T00:31:49.532Z,1.90
2018-09-22T00:34:18.114Z,2.20
2018-09-22T00:36:46.687Z,2.43
2018-09-22T00:39:15.321Z,2.60
2018-09-22T00:41:44.394Z,2.60
2018-09-22T00:44:13.005Z,2.90
2018-09-22T00:46:41.597Z,2.80
2018-09-22T00:49:10.165Z,2.57
2018-09-22T00:51:38.705Z,2.60
2018-09-22T00:54:07.316Z,2.90
2018-09-22T00:56:35.861Z,2.83
2018-09-22T00:59:04.467Z,2.60
2018-09-22T01:01:33.173Z,2.70
2018-09-22T01:04:01.824Z,3.23
2018-09-22T01:06:30.385Z,3.30
2018-09-22T01:08:58.961Z,3.00
2018-09-22T01:11:27.513Z,3.00
2018-09-22T01:13:56.082Z,2.97
2018-09-22T01:16:24.690Z,2.90
2018-09-22T01:18:53.253Z,3.00
2018-09-22T01:21:21.847Z,2.67
2018-09-22T01:23:50.400Z,2.83
2018-09-22T01:26:18.978Z,3.03
2018-09-22T01:28:47.522Z,2.70
2018-09-22T01:31:16.092Z,3.10
2018-09-22T01:33:44.648Z,3.20
2018-09-22T01:36:13.272Z,2.67
2018-09-22T01:38:41.858Z,2.97
2018-09-22T01:41:10.456Z,3.10
2018-09-22T01:43:39.026Z,3.10
2018-09-22T01:46:07.652Z,3.40
2018-09-22T01:48:36.203Z,2.73
2018-09-22T01:51:04.816Z,2.70
2018-09-22T01:53:33.384Z,2.80
2018-09-22T01:56:01.976Z,2.60
2018-09-22T01:58:30.533Z,2.53
2018-09-22T02:00:59.157Z,2.73
2018-09-22T02:03:27.747Z,2.30
2018-09-22T02:05:56.362Z,2.50
2018-09-22T02:08:24.920Z,2.40
2018-09-22T02:10:53.504Z,2.43
2018-09-22T02:13:22.044Z,2.50
2018-09-22T02:15:50.781Z,2.50
2018-09-22T02:18:19.397Z,2.30
2018-09-22T02:20:47.992Z,2.67
2018-09-22T02:23:16.555Z,2.30
2018-09-22T02:25:45.150Z,2.07
2018-09-22T02:29:38.085Z,2.13
2018-09-22T02:32:06.750Z,2.47
2018-09-22T02:34:35.369Z,1.90
2018-09-22T02:37:03.974Z,2.10
2018-09-22T02:39:32.544Z,1.90
2018-09-22T02:42:01.149Z,2.20
2018-09-22T02:44:29.734Z,1.97
2018-09-22T02:46:58.372Z,2.00
2018-09-22T02:49:26.931Z,1.80
2018-09-22T02:51:55.557Z,2.00
2018-09-22T02:54:24.132Z,2.10
2018-09-22T02:56:52.700Z,2.27
2018-09-22T02:59:21.811Z,2.13
2018-09-22T03:01:50.427Z,1.93
2018-09-22T03:04:19.305Z,2.00
2018-09-22T03:06:48.208Z,2.20
2018-09-22T03:09:16.770Z,1.83
2018-09-22T03:11:46.018Z,2.00
2018-09-22T03:14:14.620Z,2.17
2018-09-22T03:16:43.205Z,2.10
2018-09-22T03:19:11.761Z,2.10
2018-09-22T03:21:40.339Z,1.90
2018-09-22T03:24:08.905Z,2.10
2018-09-22T03:26:37.497Z,1.90
2018-09-22T03:29:06.262Z,2.00
2018-09-22T03:31:34.893Z,2.40
2018-09-22T03:34:03.496Z,2.03
2018-09-22T03:36:32.110Z,2.40
2018-09-22T03:39:00.687Z,2.30
2018-09-22T03:41:29.263Z,2.20
2018-09-22T03:43:57.792Z,2.10
2018-09-22T03:46:26.402Z,2.10
2018-09-22T03:48:54.972Z,2.40
2018-09-22T03:51:23.559Z,2.10
2018-09-22T03:53:52.103Z,2.10
2018-09-22T03:56:20.716Z,1.90
2018-09-22T03:58:49.329Z,2.00
2018-09-22T04:01:17.940Z,1.80
2018-09-22T04:03:46.539Z,2.27
2018-09-22T04:06:15.161Z,1.87
2018-09-22T04:08:43.709Z,1.90
2018-09-22T04:11:12.289Z,2.00
2018-09-22T04:13:40.924Z,1.60
2018-09-22T04:16:09.497Z,2.10
2018-09-22T04:18:38.080Z,1.90
2018-09-22T04:21:06.664Z,2.30
2018-09-22T04:23:35.234Z,1.87
2018-09-22T04:26:03.820Z,2.10
2018-09-22T04:28:32.405Z,2.00
2018-09-22T04:31:01.270Z,1.90
2018-09-22T04:33:30.608Z,2.20
2018-09-22T04:35:59.224Z,2.10
2018-09-22T04:38:27.775Z,2.13
2018-09-22T04:40:57.946Z,2.30
2018-09-22T04:43:27.303Z,1.93
2018-09-22T04:45:55.862Z,2.33
2018-09-22T04:48:24.605Z,2.00
2018-09-22T04:50:53.361Z,2.07
2018-09-22T04:53:22.225Z,1.90
2018-09-22T04:55:51.079Z,2.10
2018-09-22T04:58:19.671Z,1.93
2018-09-22T05:00:48.237Z,2.23
2018-09-22T05:03:16.837Z,2.00
2018-09-22T05:05:45.399Z,1.97
2018-09-22T05:08:13.975Z,2.27
2018-09-22T05:10:42.517Z,1.90
2018-09-22T05:13:11.071Z,2.30
2018-09-22T05:15:39.621Z,2.00
2018-09-22T05:18:08.204Z,2.07
2018-09-22T05:20:36.778Z,2.00
2018-09-22T05:23:05.413Z,1.80
2018-09-22T05:25:33.980Z,2.00
2018-09-22T05:28:02.577Z,1.90
2018-09-22T05:30:31.128Z,1.90
2018-09-22T05:32:59.734Z,1.90
2018-09-22T05:35:28.276Z,2.23
2018-09-22T05:37:56.869Z,2.20
2018-09-22T05:40:25.462Z,1.93
2018-09-22T05:42:54.037Z,1.80
2018-09-22T05:45:22.584Z,2.30
2018-09-22T05:47:51.194Z,1.93
2018-09-22T05:50:19.752Z,2.17
2018-09-22T05:52:48.349Z,1.77
2018-09-22T05:55:16.904Z,2.10
2018-09-22T05:57:45.489Z,2.10
2018-09-22T06:00:14.036Z,1.93
2018-09-22T06:02:42.614Z,1.77
2018-09-22T06:05:11.188Z,1.83
2018-09-22T06:07:40.118Z,1.70
2018-09-22T06:10:08.741Z,1.93
2018-09-22T06:12:37.398Z,2.07
2018-09-22T06:15:06.758Z,2.03
2018-09-22T06:17:35.298Z,1.57
2018-09-22T06:20:03.960Z,1.70
2018-09-22T06:22:32.607Z,1.70
2018-09-22T06:25:01.157Z,1.80
2018-09-22T06:27:29.845Z,1.60
2018-09-22T06:29:58.420Z,1.93
2018-09-22T06:32:26.969Z,1.80
2018-09-22T06:34:55.568Z,1.83
2018-09-22T06:37:24.134Z,1.73
2018-09-22T06:39:52.748Z,1.70
2018-09-22T06:42:21.288Z,1.90
2018-09-22T06:44:49.909Z,1.70
2018-09-22T06:47:18.530Z,1.80
2018-09-22T06:49:47.973Z,2.00
2018-09-22T06:52:16.557Z,2.07
2018-09-22T06:54:45.159Z,2.43
2018-09-22T06:57:13.745Z,2.53
2018-09-22T06:59:42.321Z,2.30
2018-09-22T07:02:10.869Z,1.80
2018-09-22T07:04:39.834Z,1.60
2018-09-22T07:07:08.641Z,1.60
2018-09-22T07:09:37.210Z,1.73
2018-09-22T07:12:05.752Z,1.50
2018-09-22T07:14:34.348Z,1.50
2018-09-22T07:17:03.611Z,1.43
2018-09-22T07:19:32.473Z,1.70
2018-09-22T07:22:06.232Z,1.57
2018-09-22T07:24:34.788Z,1.70
2018-09-22T07:27:03.322Z,1.50
2018-09-22T07:29:31.900Z,1.50
2018-09-22T07:32:00.469Z,1.50
2018-09-22T07:34:29.037Z,1.70
2018-09-22T07:36:57.598Z,1.47
2018-09-22T07:39:26.183Z,1.60
2018-09-22T07:41:54.731Z,1.80
2018-09-22T07:44:23.431Z,1.47
2018-09-22T07:46:51.953Z,1.70
2018-09-22T07:49:20.535Z,1.40
2018-09-22T07:51:49.073Z,1.50
2018-09-22T07:54:17.616Z,1.50
2018-09-22T07:56:46.140Z,1.53
2018-09-22T07:59:14.727Z,1.30
2018-09-22T08:01:43.351Z,1.67
2018-09-22T08:04:11.917Z,1.50
2018-09-22T08:06:40.447Z,1.60
2018-09-22T08:09:09.365Z,1.87
2018-09-22T08:11:37.939Z,1.80
2018-09-22T08:14:06.554Z,1.57
2018-09-22T08:16:35.090Z,1.90
2018-09-22T08:19:03.646Z,1.80
2018-09-22T08:21:32.197Z,1.27
2018-09-22T08:24:00.757Z,1.70
2018-09-22T08:26:29.297Z,1.70
2018-09-22T08:28:57.865Z,1.80
2018-09-22T08:31:26.423Z,1.50
2018-09-22T08:33:54.928Z,1.83
2018-09-22T08:36:23.666Z,1.50
2018-09-22T08:38:52.028Z,1.30
2018-09-22T08:41:20.579Z,1.97
2018-09-22T08:43:49.147Z,1.60
2018-09-22T08:46:17.720Z,1.33
2018-09-22T08:48:46.236Z,1.40
2018-09-22T08:51:14.819Z,1.87
2018-09-22T08:53:43.347Z,1.43
2018-09-22T08:56:11.893Z,1.57
2018-09-22T08:58:40.393Z,1.77
2018-09-22T09:01:08.943Z,1.40
2018-09-22T09:03:38.304Z,1.60
2018-09-22T09:06:06.890Z,1.73
2018-09-22T09:08:35.432Z,1.40
2018-09-22T09:11:03.988Z,1.17
2018-09-22T09:13:32.516Z,1.67
2018-09-22T09:16:01.073Z,1.50
2018-09-22T09:18:29.589Z,1.60
2018-09-22T09:20:58.130Z,1.43
2018-09-22T09:23:26.704Z,1.40
2018-09-22T09:25:55.244Z,1.50
2018-09-22T09:28:23.772Z,1.40
2018-09-22T09:30:52.318Z,1.80
2018-09-22T09:33:20.885Z,1.33
2018-09-22T09:35:49.528Z,1.60
2018-09-22T09:38:18.057Z,1.57
2018-09-22T09:40:46.638Z,1.53
2018-09-22T09:43:15.191Z,1.63
2018-09-22T09:45:43.764Z,1.30
2018-09-22T09:48:12.272Z,1.67
2018-09-22T09:50:40.915Z,1.50
2018-09-22T09:53:09.436Z,1.47
2018-09-22T09:55:38.020Z,1.60
2018-09-22T09:58:06.917Z,1.43
2018-09-22T10:00:40.656Z,1.60
2018-09-22T10:03:09.157Z,1.60
2018-09-22T10:05:37.793Z,1.77
2018-09-22T10:08:06.531Z,1.20
2018-09-22T10:10:35.314Z,1.63
2018-09-22T10:13:03.853Z,1.57
2018-09-22T10:15:32.412Z,1.60
2018-09-22T10:18:00.944Z,1.80
2018-09-22T10:20:29.524Z,1.40
2018-09-22T10:22:58.093Z,1.60
2018-09-22T10:25:26.600Z,1.60
2018-09-22T10:27:55.188Z,1.50
2018-09-22T10:30:23.722Z,1.63
2018-09-22T10:32:52.317Z,1.60
2018-09-22T10:35:20.848Z,1.60
2018-09-22T10:37:50.787Z,1.47
2018-09-22T10:40:20.286Z,1.63
2018-09-22T10:42:49.789Z,1.67
2018-09-22T10:45:18.423Z,1.70
2018-09-22T10:47:46.977Z,1.33
2018-09-22T10:50:16.365Z,1.30
2018-09-22T10:52:47.079Z,1.40
2018-09-22T10:55:15.612Z,1.40
2018-09-22T10:57:44.177Z,1.30
2018-09-22T11:00:12.717Z,1.30
2018-09-22T11:02:41.275Z,1.50
2018-09-22T11:05:10.765Z,1.50
2018-09-22T11:07:40.341Z,1.30
2018-09-22T11:10:09.630Z,1.60
2018-09-22T11:12:38.270Z,1.60
2018-09-22T11:15:08.343Z,1.17
2018-09-22T11:17:38.141Z,1.43
2018-09-22T11:20:08.275Z,1.30
2018-09-22T11:22:38.096Z,1.20
2018-09-22T11:25:07.049Z,1.40
2018-09-22T11:27:37.002Z,1.55
2018-09-22T11:30:07.220Z,1.30
2018-09-22T11:32:37.066Z,1.47
2018-09-22T11:35:05.635Z,1.37
2018-09-22T11:37:34.215Z,1.40
2018-09-22T11:40:02.765Z,1.37
2018-09-22T11:42:31.315Z,1.65
2018-09-22T11:44:59.852Z,1.37
2018-09-22T11:47:28.395Z,1.20
2018-09-22T11:49:56.932Z,1.45
2018-09-22T11:52:25.505Z,1.25
2018-09-22T11:54:54.036Z,1.30
2018-09-22T11:57:23.218Z,1.25
2018-09-22T11:59:51.780Z,1.60
2018-09-22T12:02:20.376Z,1.30
2018-09-22T12:04:48.908Z,1.30
2018-09-22T12:07:17.465Z,1.30
2018-09-22T12:09:45.972Z,1.10
2018-09-22T12:12:14.586Z,1.40
2018-09-22T12:14:43.108Z,1.10
2018-09-22T12:17:11.669Z,1.30
2018-09-22T12:19:40.213Z,1.30
2018-09-22T12:22:08.773Z,1.15
2018-09-22T12:24:37.293Z,1.20
2018-09-22T12:27:06.001Z,1.60
2018-09-22T12:29:34.530Z,1.20
2018-09-22T12:32:03.183Z,1.30
2018-09-22T12:34:31.646Z,1.30
2018-09-22T12:37:00.232Z,1.30
2018-09-22T12:39:28.777Z,1.43
2018-09-22T12:41:57.356Z,1.20
2018-09-22T12:44:25.891Z,1.30
2018-09-22T12:46:54.432Z,1.63
2018-09-22T12:49:23.034Z,1.30
2018-09-22T12:51:51.541Z,1.47
2018-09-22T12:54:20.097Z,1.15
2018-09-22T12:56:48.620Z,1.40
2018-09-22T12:59:17.184Z,1.10
2018-09-22T13:01:45.704Z,1.20
2018-09-22T13:04:14.273Z,1.35
2018-09-22T13:06:42.801Z,1.05
2018-09-22T13:09:11.885Z,1.42
2018-09-22T13:11:40.417Z,1.40
2018-09-22T13:14:08.992Z,1.07
2018-09-22T13:16:37.526Z,1.12
2018-09-22T13:19:06.157Z,0.90
2018-09-22T13:21:34.706Z,1.30
2018-09-22T13:24:03.353Z,1.20
2018-09-22T13:26:31.916Z,1.02
2018-09-22T13:29:00.457Z,1.32
2018-09-22T13:31:28.988Z,1.40
2018-09-22T13:33:57.744Z,1.32
2018-09-22T13:36:26.275Z,1.20
2018-09-22T13:38:54.830Z,1.20
2018-09-22T13:41:23.358Z,1.60
2018-09-22T13:43:51.916Z,1.20
2018-09-22T13:46:20.443Z,1.20
2018-09-22T13:48:49.040Z,1.40
2018-09-22T13:51:17.552Z,1.30
2018-09-22T13:53:46.110Z,1.27
2018-09-22T13:56:14.850Z,1.30
2018-09-22T13:58:43.364Z,1.53
2018-09-22T14:01:11.895Z,1.10
2018-09-22T14:03:40.514Z,1.03
2018-09-22T14:06:24.831Z,1.10
2018-09-22T14:09:03.579Z,1.20
2018-09-22T14:11:39.841Z,1.00
2018-09-22T14:14:10.467Z,0.90
2018-09-22T14:16:42.632Z,1.40
2018-09-22T14:19:17.591Z,1.30
2018-09-22T14:21:52.201Z,1.30
2018-09-22T14:24:26.717Z,1.17
2018-09-22T14:26:55.290Z,1.20
2018-09-22T14:29:23.896Z,1.07
2018-09-22T14:31:52.418Z,1.10
2018-09-22T14:34:21.004Z,1.03
2018-09-22T14:36:48.466Z,1.20
2018-09-22T14:39:17.048Z,1.50
2018-09-22T14:41:45.564Z,1.10
2018-09-22T14:44:14.120Z,1.27
2018-09-22T14:46:42.612Z,1.30
2018-09-22T14:49:11.216Z,1.33
2018-09-22T14:51:39.757Z,1.20
2018-09-22T14:54:08.418Z,1.30
2018-09-22T14:56:37.034Z,1.10
2018-09-22T14:59:05.718Z,1.10
2018-09-22T15:01:34.344Z,1.20
2018-09-22T15:04:02.912Z,1.07
2018-09-22T15:06:31.495Z,1.20
2018-09-22T15:09:00.048Z,1.20
2018-09-22T15:11:28.583Z,1.30
2018-09-22T15:13:57.192Z,1.30
2018-09-22T15:16:25.704Z,1.20
2018-09-22T15:18:54.249Z,1.00
2018-09-22T15:21:22.797Z,1.30
2018-09-22T15:23:51.424Z,1.17
2018-09-22T15:26:19.924Z,1.17
2018-09-22T15:28:48.544Z,1.40
2018-09-22T15:31:17.108Z,1.30
2018-09-22T15:33:45.624Z,1.00
2018-09-22T15:36:14.180Z,0.80
2018-09-22T15:38:42.692Z,1.07
2018-09-22T15:41:11.273Z,1.10
2018-09-22T15:43:39.784Z,1.30
2018-09-22T15:46:08.342Z,1.10
2018-09-22T15:48:36.883Z,1.47
2018-09-22T15:51:05.509Z,1.10
2018-09-22T15:53:34.017Z,1.20
2018-09-22T15:56:02.565Z,1.10
2018-09-22T15:58:31.140Z,1.20
2018-09-22T16:00:59.774Z,1.40
2018-09-22T16:03:28.248Z,1.20
2018-09-22T16:05:56.793Z,1.00
2018-09-22T16:08:25.312Z,1.20
2018-09-22T16:10:53.861Z,1.33
2018-09-22T16:13:22.377Z,1.23
2018-09-22T16:15:50.923Z,1.23
2018-09-22T16:18:19.441Z,1.20
2018-09-22T16:20:47.984Z,0.93
2018-09-22T16:23:16.530Z,0.87
2018-09-22T16:25:45.169Z,1.30
2018-09-22T16:28:13.683Z,1.00
2018-09-22T16:30:42.239Z,1.20
2018-09-22T16:33:10.748Z,1.50
2018-09-22T16:35:39.320Z,1.20
2018-09-22T16:38:07.852Z,1.10
2018-09-22T16:40:36.424Z,1.30
2018-09-22T16:43:04.968Z,1.30
2018-09-22T16:45:33.524Z,1.43
2018-09-22T16:48:02.065Z,1.13
2018-09-22T16:50:30.669Z,1.20
2018-09-22T16:52:59.180Z,1.07
2018-09-22T16:55:27.755Z,0.90
2018-09-22T16:57:56.297Z,1.17
2018-09-22T17:00:24.867Z,1.20
2018-09-22T17:02:53.402Z,1.30
2018-09-22T17:05:21.976Z,1.30
2018-09-22T17:07:50.515Z,1.30
2018-09-22T17:10:19.084Z,1.10
2018-09-22T17:12:47.652Z,1.20
2018-09-22T17:15:16.260Z,1.60
2018-09-22T17:17:44.879Z,1.20
2018-09-22T17:20:13.453Z,1.30
2018-09-22T17:22:42.025Z,1.27
2018-09-22T17:25:10.602Z,1.40
2018-09-22T17:27:39.209Z,1.30
2018-09-22T17:30:07.776Z,1.30
2018-09-22T17:32:38.262Z,1.00
2018-09-22T17:35:07.844Z,1.37
2018-09-22T17:37:36.508Z,1.20
2018-09-22T17:40:05.144Z,1.30
2018-09-22T17:42:34.503Z,1.37
2018-09-22T17:45:03.149Z,1.20
2018-09-22T17:47:31.790Z,1.70
2018-09-22T17:50:00.312Z,1.50
2018-09-22T17:52:29.412Z,1.40
2018-09-22T17:54:57.988Z,1.70
2018-09-22T17:57:26.549Z,1.50
2018-09-22T17:59:55.894Z,1.70
2018-09-22T18:02:25.430Z,1.50
2018-09-22T18:04:53.996Z,1.37
2018-09-22T18:07:22.871Z,1.50
2018-09-22T18:09:51.774Z,1.10
2018-09-22T18:12:20.896Z,1.50
2018-09-22T18:14:49.477Z,1.33
2018-09-22T18:17:18.738Z,1.20
2018-09-22T18:19:47.316Z,1.53
2018-09-22T18:22:15.880Z,1.47
2018-09-22T18:24:44.420Z,1.50
2018-09-22T18:27:13.077Z,1.37
2018-09-22T18:29:41.613Z,1.60
2018-09-22T18:32:10.185Z,1.43
2018-09-22T18:34:38.721Z,1.80
2018-09-22T18:37:07.343Z,1.60
2018-09-22T18:39:35.904Z,1.37
2018-09-22T18:42:04.500Z,1.40
2018-09-22T18:44:34.034Z,1.50
2018-09-22T18:47:02.584Z,1.67
2018-09-22T18:49:31.133Z,1.53
2018-09-22T18:51:59.692Z,1.63
2018-09-22T18:54:28.229Z,1.43
2018-09-22T18:56:56.780Z,1.60
2018-09-22T18:59:25.313Z,1.40
2018-09-22T19:01:53.890Z,1.33
2018-09-22T19:04:22.409Z,1.43
2018-09-22T19:08:15.388Z,1.70
2018-09-22T19:10:43.924Z,1.50
2018-09-22T19:13:14.828Z,1.50
2018-09-22T19:15:50.624Z,1.50
2018-09-22T19:18:24.570Z,1.40
2018-09-22T19:21:11.297Z,1.60
2018-09-22T19:23:45.869Z,1.30
2018-09-22T19:26:19.335Z,1.50
2018-09-22T19:28:51.832Z,1.77
2018-09-22T19:31:24.256Z,1.80
2018-09-22T19:33:59.477Z,1.80
2018-09-22T19:36:32.500Z,2.00
2018-09-22T19:39:11.953Z,1.80
2018-09-22T19:41:50.469Z,1.40
2018-09-22T19:45:28.252Z,1.50
2018-09-22T19:49:05.784Z,1.60
2018-09-22T19:51:38.420Z,1.50
2018-09-22T19:54:07.072Z,1.50
2018-09-22T19:56:35.612Z,1.60
2018-09-22T19:59:04.189Z,1.50
2018-09-22T20:01:32.716Z,1.50
2018-09-22T20:04:01.304Z,1.27
2018-09-22T20:06:29.844Z,2.03
2018-09-22T20:08:58.421Z,1.90
2018-09-22T20:11:26.995Z,1.57
2018-09-22T20:13:55.544Z,1.53
2018-09-22T20:16:24.077Z,1.77
2018-09-22T20:18:52.648Z,1.70
2018-09-22T20:21:21.190Z,1.97
2018-09-22T20:23:49.758Z,2.23
2018-09-22T20:26:19.093Z,1.70
2018-09-22T20:28:47.697Z,2.00
2018-09-22T20:31:16.838Z,1.80
2018-09-22T20:33:46.276Z,2.10
2018-09-22T20:36:14.877Z,2.10
2018-09-22T20:38:43.457Z,1.83
2018-09-22T20:41:12.503Z,1.80
2018-09-22T20:43:44.533Z,1.80
2018-09-22T20:46:13.064Z,1.83
2018-09-22T20:48:41.624Z,1.60
2018-09-22T20:51:10.161Z,1.67
2018-09-22T20:53:38.795Z,1.80
2018-09-22T20:56:07.493Z,1.57
2018-09-22T20:58:36.072Z,1.67
2018-09-22T21:01:04.625Z,1.70
2018-09-22T21:03:33.201Z,1.90
2018-09-22T21:06:01.750Z,2.10
2018-09-22T21:08:30.324Z,1.80
2018-09-22T21:10:58.904Z,2.20
2018-09-22T21:13:27.493Z,1.97
2018-09-22T21:15:56.355Z,2.30
2018-09-22T21:18:24.883Z,2.00
2018-09-22T21:20:53.511Z,2.27
2018-09-22T21:23:22.101Z,2.30
2018-09-22T21:25:50.692Z,2.40
2018-09-22T21:28:19.235Z,2.27
2018-09-22T21:30:47.865Z,2.37
2018-09-22T21:33:16.349Z,2.23
2018-09-22T21:35:44.940Z,2.20
2018-09-22T21:38:13.476Z,2.30
2018-09-22T21:40:42.041Z,2.20
2018-09-22T21:43:10.578Z,2.20
2018-09-22T21:45:39.141Z,2.30
2018-09-22T21:48:07.693Z,2.40
2018-09-22T21:50:36.241Z,2.20
2018-09-22T21:53:04.784Z,2.60
2018-09-22T21:55:33.324Z,2.30
2018-09-22T21:58:01.865Z,2.10
2018-09-22T22:00:30.481Z,2.07
2018-09-22T22:02:59.151Z,2.00
2018-09-22T22:05:27.799Z,2.10
2018-09-22T22:07:56.349Z,2.10
2018-09-22T22:10:25.087Z,2.27
2018-09-22T22:12:53.626Z,1.97
2018-09-22T22:15:22.211Z,2.20
2018-09-22T22:17:50.737Z,2.23
2018-09-22T22:20:19.316Z,2.23
2018-09-22T22:22:47.864Z,2.20
2018-09-22T22:25:16.448Z,2.57
2018-09-22T22:27:44.991Z,2.03
2018-09-22T22:30:13.607Z,2.20
2018-09-22T22:32:42.157Z,2.23
2018-09-22T22:35:10.818Z,2.20
2018-09-22T22:37:39.308Z,2.63
2018-09-22T22:40:07.923Z,2.40
2018-09-22T22:42:36.453Z,2.40
2018-09-22T22:45:05.153Z,2.73
2018-09-22T22:47:33.702Z,2.37
2018-09-22T22:50:02.276Z,2.93
2018-09-22T22:52:33.531Z,2.27
2018-09-22T22:55:02.121Z,2.87
2018-09-22T22:57:30.648Z,2.60
2018-09-22T22:59:59.211Z,2.37
2018-09-22T23:02:27.786Z,3.00
2018-09-22T23:04:56.429Z,2.70
2018-09-22T23:07:25.000Z,2.47
2018-09-22T23:09:53.674Z,2.13
2018-09-22T23:12:24.315Z,2.80
2018-09-22T23:14:52.936Z,2.47
2018-09-22T23:17:21.533Z,2.40
2018-09-22T23:19:50.112Z,2.33
2018-09-22T23:22:18.639Z,2.50
2018-09-22T23:24:47.164Z,2.50
2018-09-22T23:27:16.724Z,2.80
2018-09-22T23:29:45.333Z,2.87
2018-09-22T23:32:13.912Z,2.70
2018-09-22T23:34:42.440Z,3.30
2018-09-22T23:37:11.016Z,2.80
2018-09-22T23:39:39.563Z,2.77
2018-09-22T23:42:08.140Z,2.77
2018-09-22T23:44:36.688Z,3.07
2018-09-22T23:47:05.314Z,2.93
2018-09-22T23:49:33.845Z,2.90
2018-09-22T23:52:02.404Z,3.17
2018-09-22T23:54:30.946Z,2.90
2018-09-22T23:56:59.504Z,3.20
2018-09-22T23:59:28.035Z,2.80
